createdAt,value
2019-03-24T00:00:56.375Z,9.70
2019-03-24T00:03:26.200Z,9.70
2019-03-24T00:05:55.946Z,9.60
2019-03-24T00:08:25.765Z,9.50
2019-03-24T00:10:55.536Z,9.40
2019-03-24T00:13:25.322Z,9.40
2019-03-24T00:15:55.113Z,9.40
2019-03-24T00:18:24.896Z,9.40
2019-03-24T00:20:54.793Z,9.30
2019-03-24T00:23:24.605Z,9.20
2019-03-24T00:25:54.365Z,9.00
2019-03-24T00:28:24.155Z,9.00
2019-03-24T00:30:53.946Z,8.90
2019-03-24T00:33:23.641Z,8.90
2019-03-24T00:35:53.452Z,8.90
2019-03-24T00:38:23.167Z,8.90
2019-03-24T00:40:52.987Z,8.80
2019-03-24T00:43:22.750Z,8.60
2019-03-24T00:45:52.515Z,8.40
2019-03-24T00:48:22.233Z,8.30
2019-03-24T00:50:51.976Z,8.10
2019-03-24T00:53:21.758Z,8.10
2019-03-24T00:55:51.568Z,8.00
2019-03-24T00:58:21.262Z,8.10
2019-03-24T01:00:53.342Z,8.10
2019-03-24T01:03:23.112Z,8.10
2019-03-24T01:05:52.933Z,8.10
2019-03-24T01:08:22.710Z,8.10
2019-03-24T01:10:52.442Z,8.00
2019-03-24T01:13:22.201Z,8.00
2019-03-24T01:15:52.036Z,8.00
2019-03-24T01:18:21.856Z,8.00
2019-03-24T01:20:51.678Z,8.00
2019-03-24T01:23:21.448Z,8.00
2019-03-24T01:25:51.512Z,7.90
2019-03-24T01:28:21.208Z,7.90
2019-03-24T01:30:50.985Z,7.90
2019-03-24T01:33:20.762Z,8.00
2019-03-24T01:35:50.534Z,7.90
2019-03-24T01:38:20.290Z,7.80
2019-03-24T01:40:50.089Z,7.80
2019-03-24T01:43:19.833Z,7.70
2019-03-24T01:45:58.209Z,7.70
2019-03-24T01:48:21.133Z,7.70
2019-03-24T01:50:51.089Z,7.60
2019-03-24T01:53:20.783Z,7.60
2019-03-24T01:55:50.649Z,7.70
2019-03-24T01:58:20.421Z,7.70
2019-03-24T02:00:50.233Z,7.80
2019-03-24T02:03:20.030Z,7.80
2019-03-24T02:05:49.811Z,7.80
2019-03-24T02:08:19.502Z,7.80
2019-03-24T02:10:49.232Z,7.70
2019-03-24T02:13:19.180Z,7.70
2019-03-24T02:15:49.024Z,7.50
2019-03-24T02:18:18.798Z,7.30
2019-03-24T02:20:48.589Z,7.10
2019-03-24T02:23:18.392Z,7.10
2019-03-24T02:25:57.402Z,7.10
2019-03-24T02:28:27.194Z,7.20
2019-03-24T02:30:56.979Z,7.20
2019-03-24T02:33:26.777Z,7.30
2019-03-24T02:35:56.593Z,7.20
2019-03-24T02:38:26.354Z,7.30
2019-03-24T02:40:56.130Z,7.40
2019-03-24T02:43:25.909Z,7.30
2019-03-24T02:45:55.705Z,7.40
2019-03-24T02:48:44.208Z,7.50
2019-03-24T02:51:13.914Z,7.60
2019-03-24T02:53:43.740Z,7.70
2019-03-24T02:56:13.553Z,7.80
2019-03-24T02:58:43.337Z,7.70
2019-03-24T03:01:13.138Z,7.50
2019-03-24T03:03:42.903Z,7.60
2019-03-24T03:06:12.695Z,7.60
2019-03-24T03:08:42.481Z,7.50
2019-03-24T03:11:12.278Z,7.40
2019-03-24T03:13:42.040Z,7.40
2019-03-24T03:16:11.840Z,7.30
2019-03-24T03:18:41.598Z,7.20
2019-03-24T03:21:11.305Z,7.20
2019-03-24T03:23:41.086Z,7.20
2019-03-24T03:26:10.870Z,7.30
2019-03-24T03:28:40.638Z,7.30
2019-03-24T03:31:10.422Z,7.30
2019-03-24T03:33:40.202Z,7.20
2019-03-24T03:36:09.983Z,7.40
2019-03-24T03:38:39.801Z,7.40
2019-03-24T03:41:09.624Z,7.40
2019-03-24T03:43:39.299Z,7.30
2019-03-24T03:46:09.095Z,7.30
2019-03-24T03:48:38.861Z,7.40
2019-03-24T03:51:08.634Z,7.40
2019-03-24T03:53:38.415Z,7.50
2019-03-24T03:56:08.193Z,7.50
2019-03-24T03:58:37.979Z,7.40
2019-03-24T04:01:07.833Z,7.40
2019-03-24T04:03:37.690Z,7.50
2019-03-24T04:06:07.484Z,7.60
2019-03-24T04:08:37.216Z,7.60
2019-03-24T04:11:07.022Z,7.50
2019-03-24T04:13:36.846Z,7.60
2019-03-24T04:16:06.531Z,7.60
2019-03-24T04:18:36.287Z,7.50
2019-03-24T04:21:06.104Z,7.40
2019-03-24T04:23:35.886Z,7.20
2019-03-24T04:26:05.612Z,7.00
2019-03-24T04:28:35.417Z,7.00
2019-03-24T04:31:05.201Z,6.70
2019-03-24T04:33:34.929Z,6.40
2019-03-24T04:36:04.761Z,6.10
2019-03-24T04:38:34.562Z,6.00
2019-03-24T04:41:04.338Z,5.80
2019-03-24T04:43:34.098Z,5.90
2019-03-24T04:46:03.872Z,6.00
2019-03-24T04:48:33.663Z,5.90
2019-03-24T04:51:03.503Z,6.10
2019-03-24T04:53:33.243Z,6.10
2019-03-24T04:56:03.130Z,6.00
2019-03-24T04:58:32.941Z,5.80
2019-03-24T05:01:02.697Z,5.70
2019-03-24T05:03:32.494Z,5.60
2019-03-24T05:06:02.209Z,5.50
2019-03-24T05:08:32.043Z,5.30
2019-03-24T05:11:01.821Z,5.10
2019-03-24T05:13:31.609Z,5.00
2019-03-24T05:16:01.392Z,5.00
2019-03-24T05:18:54.796Z,5.10
2019-03-24T05:21:29.425Z,5.10
2019-03-24T05:23:59.491Z,5.20
2019-03-24T05:26:39.260Z,5.20
2019-03-24T05:32:10.205Z,5.10
2019-03-24T05:34:52.496Z,5.10
2019-03-24T05:37:22.229Z,5.20
2019-03-24T05:40:28.492Z,5.20
2019-03-24T05:42:58.322Z,5.40
2019-03-24T05:45:28.157Z,5.50
2019-03-24T05:47:57.956Z,5.70
2019-03-24T05:50:27.765Z,5.80
2019-03-24T05:52:57.545Z,5.80
2019-03-24T05:55:39.292Z,5.80
2019-03-24T05:58:09.052Z,5.60
2019-03-24T06:00:47.471Z,5.70
2019-03-24T06:03:14.697Z,5.80
2019-03-24T06:05:44.808Z,5.90
2019-03-24T06:08:17.738Z,6.00
2019-03-24T06:10:47.493Z,6.20
2019-03-24T06:13:17.241Z,6.30
2019-03-24T06:15:47.023Z,6.40
2019-03-24T06:18:16.754Z,6.40
2019-03-24T06:20:46.453Z,6.40
2019-03-24T06:23:17.221Z,6.40
2019-03-24T06:25:47.045Z,6.40
2019-03-24T06:28:16.826Z,6.70
2019-03-24T06:30:46.655Z,6.90
2019-03-24T06:33:16.378Z,7.00
2019-03-24T06:35:46.161Z,7.20
2019-03-24T06:38:15.956Z,7.20
2019-03-24T06:40:45.742Z,7.40
2019-03-24T06:43:15.506Z,7.60
2019-03-24T06:45:45.292Z,7.50
2019-03-24T06:48:15.095Z,7.30
2019-03-24T06:50:44.978Z,7.30
2019-03-24T06:53:14.744Z,7.30
2019-03-24T06:55:44.538Z,7.30
2019-03-24T06:58:14.823Z,7.20
2019-03-24T07:00:46.068Z,7.10
2019-03-24T07:03:19.281Z,7.10
2019-03-24T07:05:50.331Z,7.00
2019-03-24T07:08:20.064Z,7.10
2019-03-24T07:10:49.981Z,7.20
2019-03-24T07:13:24.900Z,7.30
2019-03-24T07:15:57.166Z,7.50
2019-03-24T07:18:34.372Z,7.70
2019-03-24T07:21:05.816Z,7.90
2019-03-24T07:23:35.585Z,8.10
2019-03-24T07:26:05.403Z,8.20
2019-03-24T07:28:36.872Z,8.40
2019-03-24T07:31:06.683Z,8.60
2019-03-24T07:33:38.906Z,8.80
2019-03-24T07:36:08.723Z,8.90
2019-03-24T07:38:38.427Z,9.10
2019-03-24T07:41:08.215Z,9.20
2019-03-24T07:43:37.944Z,9.30
2019-03-24T07:46:07.774Z,9.40
2019-03-24T07:48:37.674Z,9.50
2019-03-24T07:51:07.487Z,9.60
2019-03-24T07:53:37.269Z,9.70
2019-03-24T07:56:07.140Z,9.80
2019-03-24T07:58:36.925Z,9.80
2019-03-24T08:01:06.735Z,9.80
2019-03-24T08:03:37.499Z,9.90
2019-03-24T08:06:07.309Z,9.90
2019-03-24T08:08:44.208Z,10.00
2019-03-24T08:11:08.616Z,10.10
2019-03-24T08:13:38.326Z,10.10
2019-03-24T08:16:08.137Z,10.10
2019-03-24T08:18:37.909Z,10.20
2019-03-24T08:21:07.847Z,10.30
2019-03-24T08:23:37.684Z,10.40
2019-03-24T08:26:07.453Z,10.50
2019-03-24T08:28:37.231Z,10.60
2019-03-24T08:31:07.044Z,10.70
2019-03-24T08:33:36.740Z,10.70
2019-03-24T08:36:06.446Z,10.80
2019-03-24T08:38:36.865Z,10.80
2019-03-24T08:41:06.654Z,10.80
2019-03-24T08:43:36.562Z,10.90
2019-03-24T08:46:06.374Z,10.90
2019-03-24T08:48:40.754Z,11.10
2019-03-24T08:51:08.018Z,11.20
2019-03-24T08:53:37.788Z,11.30
2019-03-24T08:56:07.599Z,11.40
2019-03-24T08:58:37.416Z,11.50
2019-03-24T09:01:07.247Z,11.50
2019-03-24T09:03:37.016Z,11.60
2019-03-24T09:06:11.290Z,11.70
2019-03-24T09:08:53.971Z,11.80
2019-03-24T09:11:33.217Z,11.80
2019-03-24T09:14:03.340Z,11.70
2019-03-24T09:16:33.140Z,11.80
2019-03-24T09:19:02.930Z,11.90
2019-03-24T09:21:37.353Z,11.90
2019-03-24T09:24:07.168Z,11.90
2019-03-24T09:26:39.203Z,11.80
2019-03-24T09:29:13.798Z,11.80
2019-03-24T09:31:44.561Z,11.80
2019-03-24T09:34:14.353Z,11.80
2019-03-24T09:36:44.199Z,12.00
2019-03-24T09:39:14.001Z,11.90
2019-03-24T09:41:43.798Z,11.80
2019-03-24T09:44:13.632Z,11.90
2019-03-24T09:46:43.493Z,11.90
2019-03-24T09:49:13.494Z,12.00
2019-03-24T09:51:43.304Z,11.90
2019-03-24T09:54:13.082Z,11.80
2019-03-24T09:56:43.000Z,11.70
2019-03-24T09:59:12.891Z,11.80
2019-03-24T10:01:42.782Z,12.00
2019-03-24T10:04:12.612Z,12.20
2019-03-24T10:06:42.517Z,12.10
2019-03-24T10:09:13.899Z,12.10
2019-03-24T10:11:44.389Z,12.20
2019-03-24T10:14:14.365Z,12.30
2019-03-24T10:16:44.232Z,12.40
2019-03-24T10:19:14.544Z,12.30
2019-03-24T10:21:44.637Z,12.40
2019-03-24T10:24:14.627Z,12.40
2019-03-24T10:26:44.988Z,12.60
2019-03-24T10:29:14.982Z,12.70
2019-03-24T10:31:44.766Z,12.90
2019-03-24T10:34:14.619Z,12.80
2019-03-24T10:36:44.445Z,12.80
2019-03-24T10:39:14.282Z,12.90
2019-03-24T10:41:44.639Z,12.90
2019-03-24T10:44:14.706Z,12.80
2019-03-24T10:46:45.140Z,12.70
2019-03-24T10:49:24.377Z,12.70
2019-03-24T10:51:47.465Z,12.50
2019-03-24T10:54:17.635Z,12.50
2019-03-24T10:56:47.442Z,12.50
2019-03-24T10:59:17.243Z,12.60
2019-03-24T11:01:46.955Z,12.80
2019-03-24T11:04:16.721Z,12.90
2019-03-24T11:06:46.447Z,13.00
2019-03-24T11:09:16.265Z,12.90
2019-03-24T11:11:46.694Z,12.70
2019-03-24T11:14:16.731Z,12.70
2019-03-24T11:16:46.597Z,12.80
2019-03-24T11:19:16.398Z,12.70
2019-03-24T11:21:46.188Z,12.70
2019-03-24T11:24:15.913Z,12.70
2019-03-24T11:26:45.689Z,12.70
2019-03-24T11:29:15.480Z,12.90
2019-03-24T11:31:45.262Z,12.80
2019-03-24T11:34:15.099Z,13.00
2019-03-24T11:36:44.908Z,13.10
2019-03-24T11:39:14.708Z,13.20
2019-03-24T11:41:45.556Z,13.30
2019-03-24T11:44:15.385Z,13.20
2019-03-24T11:46:45.229Z,13.30
2019-03-24T11:49:33.838Z,13.40
2019-03-24T11:52:03.648Z,13.30
2019-03-24T11:54:33.485Z,13.30
2019-03-24T11:57:03.336Z,13.40
2019-03-24T11:59:33.164Z,13.50
2019-03-24T12:02:02.980Z,13.50
2019-03-24T12:04:32.804Z,13.50
2019-03-24T12:07:02.608Z,13.60
2019-03-24T12:09:32.361Z,13.50
2019-03-24T12:12:02.258Z,13.60
2019-03-24T12:14:32.091Z,13.60
2019-03-24T12:17:01.938Z,13.50
2019-03-24T12:19:31.775Z,13.40
2019-03-24T12:22:01.606Z,13.40
2019-03-24T12:24:32.368Z,13.40
2019-03-24T12:27:02.153Z,13.30
2019-03-24T12:29:32.032Z,13.30
2019-03-24T12:32:01.925Z,13.40
2019-03-24T12:34:31.998Z,13.60
2019-03-24T12:37:01.790Z,13.60
2019-03-24T12:39:31.681Z,13.50
2019-03-24T12:42:01.529Z,13.70
2019-03-24T12:44:31.366Z,13.80
2019-03-24T12:47:01.231Z,13.90
2019-03-24T12:49:31.082Z,14.00
2019-03-24T12:52:00.904Z,13.90
2019-03-24T12:54:30.733Z,13.80
2019-03-24T12:57:00.529Z,13.80
2019-03-24T12:59:30.332Z,13.80
2019-03-24T13:02:00.120Z,13.90
2019-03-24T13:04:29.969Z,14.00
2019-03-24T13:06:59.758Z,13.70
2019-03-24T13:09:29.600Z,13.70
2019-03-24T13:11:59.373Z,13.80
2019-03-24T13:14:30.724Z,14.00
2019-03-24T13:17:00.696Z,14.10
2019-03-24T13:19:30.517Z,14.30
2019-03-24T13:22:00.354Z,14.30
2019-03-24T13:24:38.896Z,14.20
2019-03-24T13:27:08.718Z,14.10
2019-03-24T13:29:38.528Z,14.00
2019-03-24T13:32:12.428Z,14.00
2019-03-24T13:34:42.229Z,13.90
2019-03-24T13:37:12.042Z,13.90
2019-03-24T13:39:41.808Z,13.80
2019-03-24T13:42:11.621Z,13.70
2019-03-24T13:44:41.466Z,13.70
2019-03-24T13:47:11.278Z,13.70
2019-03-24T13:49:41.146Z,13.60
2019-03-24T13:52:10.972Z,13.60
2019-03-24T13:54:40.785Z,13.80
2019-03-24T13:57:10.713Z,13.80
2019-03-24T13:59:40.577Z,13.80
2019-03-24T14:02:10.544Z,13.70
2019-03-24T14:04:40.376Z,13.60
2019-03-24T14:07:10.275Z,13.40
2019-03-24T14:09:40.055Z,13.50
2019-03-24T14:12:10.011Z,13.50
2019-03-24T14:14:39.805Z,13.40
2019-03-24T14:17:09.682Z,13.40
2019-03-24T14:19:39.452Z,13.40
2019-03-24T14:22:09.321Z,13.30
2019-03-24T14:24:39.179Z,13.30
2019-03-24T14:27:09.001Z,13.30
2019-03-24T14:29:41.288Z,13.40
2019-03-24T14:32:11.105Z,13.50
2019-03-24T14:34:40.921Z,13.50
2019-03-24T14:37:11.775Z,13.50
2019-03-24T14:39:41.724Z,13.30
2019-03-24T14:42:11.562Z,13.00
2019-03-24T14:44:41.396Z,13.00
2019-03-24T14:47:11.174Z,13.10
2019-03-24T14:49:40.956Z,13.10
2019-03-24T14:52:10.765Z,13.30
2019-03-24T14:54:40.532Z,13.20
2019-03-24T14:57:10.333Z,13.20
2019-03-24T14:59:40.142Z,13.30
2019-03-24T15:02:09.945Z,13.30
2019-03-24T15:04:39.755Z,13.40
2019-03-24T15:07:09.513Z,13.30
2019-03-24T15:09:39.388Z,13.40
2019-03-24T15:12:09.194Z,13.50
2019-03-24T15:14:39.020Z,13.60
2019-03-24T15:17:08.922Z,13.80
2019-03-24T15:19:38.749Z,13.60
2019-03-24T15:22:08.570Z,13.50
2019-03-24T15:24:38.386Z,13.50
2019-03-24T15:27:08.176Z,13.50
2019-03-24T15:29:40.575Z,13.60
2019-03-24T15:32:11.115Z,13.50
2019-03-24T15:34:41.045Z,13.40
2019-03-24T15:37:10.864Z,13.40
2019-03-24T15:39:40.706Z,13.30
2019-03-24T15:42:10.701Z,13.20
2019-03-24T15:44:40.451Z,13.10
2019-03-24T15:47:10.352Z,13.20
2019-03-24T15:49:41.545Z,13.20
2019-03-24T15:52:11.474Z,13.30
2019-03-24T15:54:41.260Z,13.30
2019-03-24T15:57:11.065Z,13.30
2019-03-24T15:59:41.929Z,13.30
2019-03-24T16:02:11.765Z,13.20
2019-03-24T16:04:41.555Z,13.00
2019-03-24T16:07:11.378Z,12.90
2019-03-24T16:09:41.105Z,12.90
2019-03-24T16:12:10.918Z,13.00
2019-03-24T16:14:40.688Z,13.00
2019-03-24T16:17:11.311Z,12.90
2019-03-24T16:19:41.148Z,12.90
2019-03-24T16:22:10.972Z,12.90
2019-03-24T16:24:41.241Z,12.80
2019-03-24T16:27:11.188Z,12.70
2019-03-24T16:29:40.899Z,12.80
2019-03-24T16:32:10.619Z,12.80
2019-03-24T16:34:40.424Z,12.70
2019-03-24T16:37:10.322Z,12.70
2019-03-24T16:39:40.157Z,12.60
2019-03-24T16:42:09.910Z,12.60
2019-03-24T16:44:39.741Z,12.60
2019-03-24T16:47:09.613Z,12.50
2019-03-24T16:49:39.560Z,12.40
2019-03-24T16:52:08.478Z,12.40
2019-03-24T16:54:38.363Z,12.40
2019-03-24T16:57:09.019Z,12.40
2019-03-24T16:59:38.894Z,12.30
2019-03-24T17:02:08.693Z,12.20
2019-03-24T17:04:38.512Z,12.10
2019-03-24T17:07:08.312Z,12.20
2019-03-24T17:09:38.125Z,12.10
2019-03-24T17:12:07.979Z,12.00
2019-03-24T17:14:37.765Z,11.90
2019-03-24T17:17:07.610Z,11.90
2019-03-24T17:19:37.373Z,11.90
2019-03-24T17:22:07.197Z,11.90
2019-03-24T17:24:37.013Z,11.90
2019-03-24T17:27:06.809Z,11.90
2019-03-24T17:29:36.624Z,11.90
2019-03-24T17:32:06.465Z,11.90
2019-03-24T17:34:37.437Z,11.90
2019-03-24T17:37:07.249Z,11.70
2019-03-24T17:39:37.065Z,11.60
2019-03-24T17:42:07.142Z,11.60
2019-03-24T17:44:37.144Z,11.50
2019-03-24T17:47:07.251Z,11.50
2019-03-24T17:49:37.361Z,11.40
2019-03-24T17:52:08.731Z,11.40
2019-03-24T17:54:38.699Z,11.40
2019-03-24T17:57:08.717Z,11.40
2019-03-24T17:59:38.596Z,11.40
2019-03-24T18:02:14.293Z,11.40
2019-03-24T18:04:40.040Z,11.40
2019-03-24T18:07:09.846Z,11.40
2019-03-24T18:09:39.888Z,11.40
2019-03-24T18:12:09.897Z,11.40
2019-03-24T18:14:39.741Z,11.40
2019-03-24T18:17:09.601Z,11.40
2019-03-24T18:19:39.442Z,11.40
2019-03-24T18:22:11.840Z,11.40
2019-03-24T18:24:40.867Z,11.40
2019-03-24T18:27:10.717Z,11.40
2019-03-24T18:29:40.618Z,11.40
2019-03-24T18:32:10.494Z,11.40
2019-03-24T18:34:40.374Z,11.40
2019-03-24T18:37:10.218Z,11.50
2019-03-24T18:39:40.112Z,11.50
2019-03-24T18:42:09.933Z,11.50
2019-03-24T18:44:39.698Z,11.50
2019-03-24T18:47:09.549Z,11.50
2019-03-24T18:49:39.353Z,11.50
2019-03-24T18:52:09.223Z,11.50
2019-03-24T18:54:39.035Z,11.40
2019-03-24T18:57:08.876Z,11.40
2019-03-24T18:59:38.689Z,11.30
2019-03-24T19:02:08.504Z,11.30
2019-03-24T19:04:38.435Z,11.30
2019-03-24T19:07:09.738Z,11.20
2019-03-24T19:09:39.593Z,11.20
2019-03-24T19:12:09.470Z,11.10
2019-03-24T19:14:40.222Z,11.20
2019-03-24T19:17:10.312Z,11.20
2019-03-24T19:19:40.140Z,11.30
2019-03-24T19:22:10.020Z,11.20
2019-03-24T19:24:40.112Z,11.10
2019-03-24T19:27:09.946Z,11.00
2019-03-24T19:29:39.771Z,10.90
2019-03-24T19:32:09.566Z,10.80
2019-03-24T19:34:39.442Z,10.70
2019-03-24T19:37:09.297Z,10.60
2019-03-24T19:39:39.109Z,10.50
2019-03-24T19:42:08.982Z,10.40
2019-03-24T19:44:38.970Z,10.40
2019-03-24T19:47:08.811Z,10.40
2019-03-24T19:49:38.627Z,10.40
2019-03-24T19:52:08.460Z,10.40
2019-03-24T19:54:38.267Z,10.40
2019-03-24T19:57:08.081Z,10.40
2019-03-24T19:59:37.915Z,10.40
2019-03-24T20:02:07.747Z,10.40
2019-03-24T20:04:37.538Z,10.40
2019-03-24T20:07:07.525Z,10.40
2019-03-24T20:09:37.361Z,10.30
2019-03-24T20:12:07.202Z,10.30
2019-03-24T20:14:37.026Z,10.20
2019-03-24T20:17:06.841Z,10.20
2019-03-24T20:19:36.683Z,10.10
2019-03-24T20:22:06.577Z,10.10
2019-03-24T20:24:36.386Z,10.10
2019-03-24T20:27:06.260Z,10.10
2019-03-24T20:29:36.122Z,10.10
2019-03-24T20:32:06.076Z,10.10
2019-03-24T20:34:35.915Z,10.10
2019-03-24T20:37:05.706Z,10.10
2019-03-24T20:39:35.545Z,10.10
2019-03-24T20:42:05.395Z,10.00
2019-03-24T20:44:35.158Z,9.80
2019-03-24T20:47:04.936Z,9.60
2019-03-24T20:49:34.844Z,9.50
2019-03-24T20:52:04.662Z,9.40
2019-03-24T20:54:34.514Z,9.30
2019-03-24T20:57:04.342Z,9.30
2019-03-24T20:59:34.197Z,9.40
2019-03-24T21:02:04.019Z,9.40
2019-03-24T21:04:33.893Z,9.50
2019-03-24T21:07:03.647Z,9.50
2019-03-24T21:09:33.606Z,9.50
2019-03-24T21:12:03.398Z,9.50
2019-03-24T21:14:33.197Z,9.50
2019-03-24T21:17:03.032Z,9.50
2019-03-24T21:19:32.790Z,9.50
2019-03-24T21:22:02.600Z,9.50
2019-03-24T21:24:32.438Z,9.50
2019-03-24T21:27:02.265Z,9.50
2019-03-24T21:29:32.109Z,9.50
2019-03-24T21:32:01.938Z,9.50
2019-03-24T21:34:31.819Z,9.50
2019-03-24T21:37:01.594Z,9.40
2019-03-24T21:39:31.330Z,9.40
2019-03-24T21:42:01.161Z,9.40
2019-03-24T21:44:31.139Z,9.30
2019-03-24T21:47:00.973Z,9.20
2019-03-24T21:49:30.801Z,9.20
2019-03-24T21:52:00.645Z,9.20
2019-03-24T21:54:30.470Z,9.10
2019-03-24T21:57:00.258Z,9.10
2019-03-24T21:59:30.074Z,9.00
2019-03-24T22:01:59.885Z,9.00
2019-03-24T22:04:29.672Z,9.00
2019-03-24T22:06:59.497Z,8.90
2019-03-24T22:09:29.371Z,9.00
2019-03-24T22:11:59.108Z,8.90
2019-03-24T22:14:28.935Z,8.90
2019-03-24T22:16:58.646Z,8.80
2019-03-24T22:19:28.781Z,8.80
2019-03-24T22:21:58.552Z,8.80
2019-03-24T22:24:28.358Z,8.80
2019-03-24T22:26:58.067Z,8.70
2019-03-24T22:29:27.980Z,8.70
2019-03-24T22:31:57.695Z,8.70
2019-03-24T22:34:27.470Z,8.70
2019-03-24T22:36:57.260Z,8.60
2019-03-24T22:39:26.972Z,8.60
2019-03-24T22:41:56.799Z,8.60
2019-03-24T22:44:26.613Z,8.60
2019-03-24T22:46:56.459Z,8.60
2019-03-24T22:49:26.281Z,8.60
2019-03-24T22:52:06.622Z,8.60
2019-03-24T22:54:27.512Z,8.70
2019-03-24T22:56:57.323Z,8.60
2019-03-24T22:59:27.090Z,8.60
2019-03-24T23:01:56.886Z,8.60
2019-03-24T23:04:26.661Z,8.60
2019-03-24T23:06:56.448Z,8.50
2019-03-24T23:09:26.263Z,8.50
2019-03-24T23:11:56.042Z,8.50
2019-03-24T23:14:25.837Z,8.40
2019-03-24T23:16:55.615Z,8.40
2019-03-24T23:19:25.345Z,8.40
2019-03-24T23:21:55.174Z,8.40
2019-03-24T23:24:24.973Z,8.30
2019-03-24T23:26:54.751Z,8.30
2019-03-24T23:29:24.470Z,8.30
2019-03-24T23:31:54.245Z,8.30
2019-03-24T23:34:24.051Z,8.30
2019-03-24T23:36:53.853Z,8.30
2019-03-24T23:39:23.649Z,8.30
2019-03-24T23:41:53.437Z,8.20
2019-03-24T23:44:23.236Z,8.30
2019-03-24T23:46:53.045Z,8.30
2019-03-24T23:49:22.858Z,8.30
2019-03-24T23:51:52.627Z,8.20
2019-03-24T23:54:27.043Z,8.20
2019-03-24T23:56:53.941Z,8.20
2019-03-24T23:59:23.729Z,8.20
